sensor_id;sensor_type;location;lat;lon;timestamp;P1;durP1;ratioP1;P2;durP2;ratioP2
1691;SDS011;843;52.054;8.552;2023-04-03T00:01:35;6.40;;;2.07;;
1691;SDS011;843;52.054;8.552;2023-04-03T00:04:03;4.80;;;1.77;;
1691;SDS011;843;52.054;8.552;2023-04-03T00:06:30;5.47;;;2.30;;
1691;SDS011;843;52.054;8.552;2023-04-03T00:08:56;5.50;;;1.60;;
1691;SDS011;843;52.054;8.552;2023-04-03T00:11:24;4.70;;;2.00;;
1691;SDS011;843;52.054;8.552;2023-04-03T00:13:51;5.20;;;1.70;;
1691;SDS011;843;52.054;8.552;2023-04-03T00:16:18;4.10;;;1.83;;
1691;SDS011;843;52.054;8.552;2023-04-03T00:18:44;2.37;;;1.43;;
1691;SDS011;843;52.054;8.552;2023-04-03T00:21:11;2.97;;;1.40;;
1691;SDS011;843;52.054;8.552;2023-04-03T00:23:39;5.13;;;1.50;;
1691;SDS011;843;52.054;8.552;2023-04-03T00:26:15;4.47;;;1.63;;
1691;SDS011;843;52.054;8.552;2023-04-03T00:28:43;2.73;;;1.50;;
1691;SDS011;843;52.054;8.552;2023-04-03T00:31:09;6.77;;;2.00;;
1691;SDS011;843;52.054;8.552;2023-04-03T00:33:36;1.63;;;1.50;;
1691;SDS011;843;52.054;8.552;2023-04-03T00:36:06;6.97;;;1.47;;
1691;SDS011;843;52.054;8.552;2023-04-03T00:38:34;3.17;;;1.50;;
1691;SDS011;843;52.054;8.552;2023-04-03T00:41:01;7.53;;;2.40;;
1691;SDS011;843;52.054;8.552;2023-04-03T00:43:27;2.90;;;1.63;;
1691;SDS011;843;52.054;8.552;2023-04-03T00:45:56;7.60;;;2.10;;
1691;SDS011;843;52.054;8.552;2023-04-03T00:48:24;3.90;;;1.70;;
1691;SDS011;843;52.054;8.552;2023-04-03T00:50:52;4.40;;;1.87;;
1691;SDS011;843;52.054;8.552;2023-04-03T00:53:21;3.60;;;2.07;;
1691;SDS011;843;52.054;8.552;2023-04-03T00:55:50;2.80;;;1.77;;
1691;SDS011;843;52.054;8.552;2023-04-03T00:58:17;2.70;;;1.73;;
1691;SDS011;843;52.054;8.552;2023-04-03T01:00:47;3.40;;;1.97;;
1691;SDS011;843;52.054;8.552;2023-04-03T01:03:22;6.33;;;2.37;;
1691;SDS011;843;52.054;8.552;2023-04-03T01:05:49;1.87;;;1.70;;
1691;SDS011;843;52.054;8.552;2023-04-03T01:08:16;5.10;;;2.43;;
1691;SDS011;843;52.054;8.552;2023-04-03T01:10:43;3.07;;;1.70;;
1691;SDS011;843;52.054;8.552;2023-04-03T01:13:20;4.10;;;1.60;;
1691;SDS011;843;52.054;8.552;2023-04-03T01:15:49;2.63;;;1.67;;
1691;SDS011;843;52.054;8.552;2023-04-03T01:18:16;4.17;;;1.70;;
1691;SDS011;843;52.054;8.552;2023-04-03T01:20:49;3.70;;;2.53;;
1691;SDS011;843;52.054;8.552;2023-04-03T01:23:36;2.67;;;2.40;;
1691;SDS011;843;52.054;8.552;2023-04-03T01:26:17;2.63;;;1.67;;
1691;SDS011;843;52.054;8.552;2023-04-03T01:28:43;7.90;;;2.63;;
1691;SDS011;843;52.054;8.552;2023-04-03T01:31:12;5.37;;;2.40;;
1691;SDS011;843;52.054;8.552;2023-04-03T01:33:45;2.13;;;1.47;;
1691;SDS011;843;52.054;8.552;2023-04-03T01:36:13;5.10;;;2.17;;
1691;SDS011;843;52.054;8.552;2023-04-03T01:38:41;4.97;;;1.93;;
1691;SDS011;843;52.054;8.552;2023-04-03T01:41:08;3.80;;;2.07;;
1691;SDS011;843;52.054;8.552;2023-04-03T01:43:34;7.87;;;2.00;;
1691;SDS011;843;52.054;8.552;2023-04-03T01:46:01;4.40;;;2.03;;
1691;SDS011;843;52.054;8.552;2023-04-03T01:48:27;5.13;;;1.67;;
1691;SDS011;843;52.054;8.552;2023-04-03T01:50:55;2.80;;;1.70;;
1691;SDS011;843;52.054;8.552;2023-04-03T01:53:22;2.20;;;1.60;;
1691;SDS011;843;52.054;8.552;2023-04-03T01:55:49;5.90;;;1.70;;
1691;SDS011;843;52.054;8.552;2023-04-03T01:58:15;2.30;;;1.53;;
1691;SDS011;843;52.054;8.552;2023-04-03T02:00:42;6.30;;;2.53;;
1691;SDS011;843;52.054;8.552;2023-04-03T02:03:08;4.60;;;2.10;;
1691;SDS011;843;52.054;8.552;2023-04-03T02:05:35;2.97;;;1.77;;
1691;SDS011;843;52.054;8.552;2023-04-03T02:08:03;4.50;;;1.90;;
1691;SDS011;843;52.054;8.552;2023-04-03T02:10:31;3.60;;;1.80;;
1691;SDS011;843;52.054;8.552;2023-04-03T02:12:57;2.80;;;1.57;;
1691;SDS011;843;52.054;8.552;2023-04-03T02:15:24;3.27;;;2.10;;
1691;SDS011;843;52.054;8.552;2023-04-03T02:17:51;3.57;;;1.90;;
1691;SDS011;843;52.054;8.552;2023-04-03T02:20:18;2.40;;;1.30;;
1691;SDS011;843;52.054;8.552;2023-04-03T02:22:45;3.23;;;1.80;;
1691;SDS011;843;52.054;8.552;2023-04-03T02:25:14;4.00;;;1.93;;
1691;SDS011;843;52.054;8.552;2023-04-03T02:27:40;4.47;;;1.67;;
1691;SDS011;843;52.054;8.552;2023-04-03T02:30:07;4.13;;;1.80;;
1691;SDS011;843;52.054;8.552;2023-04-03T02:32:35;5.10;;;2.20;;
1691;SDS011;843;52.054;8.552;2023-04-03T02:35:02;3.20;;;1.87;;
1691;SDS011;843;52.054;8.552;2023-04-03T02:37:29;6.97;;;3.70;;
1691;SDS011;843;52.054;8.552;2023-04-03T02:39:56;3.90;;;2.53;;
1691;SDS011;843;52.054;8.552;2023-04-03T02:42:24;9.57;;;1.90;;
1691;SDS011;843;52.054;8.552;2023-04-03T02:44:51;6.50;;;1.77;;
1691;SDS011;843;52.054;8.552;2023-04-03T02:47:17;2.37;;;2.17;;
1691;SDS011;843;52.054;8.552;2023-04-03T02:49:44;6.43;;;2.00;;
1691;SDS011;843;52.054;8.552;2023-04-03T02:52:11;3.50;;;2.20;;
1691;SDS011;843;52.054;8.552;2023-04-03T02:54:37;4.20;;;1.93;;
1691;SDS011;843;52.054;8.552;2023-04-03T02:57:04;4.43;;;2.13;;
1691;SDS011;843;52.054;8.552;2023-04-03T02:59:34;3.43;;;1.77;;
1691;SDS011;843;52.054;8.552;2023-04-03T03:02:01;7.87;;;2.50;;
1691;SDS011;843;52.054;8.552;2023-04-03T03:04:27;3.93;;;2.07;;
1691;SDS011;843;52.054;8.552;2023-04-03T03:06:54;10.30;;;2.20;;
1691;SDS011;843;52.054;8.552;2023-04-03T03:09:21;1.90;;;1.50;;
1691;SDS011;843;52.054;8.552;2023-04-03T03:11:47;3.83;;;2.40;;
1691;SDS011;843;52.054;8.552;2023-04-03T03:14:14;4.83;;;2.17;;
1691;SDS011;843;52.054;8.552;2023-04-03T03:16:42;1.87;;;1.67;;
1691;SDS011;843;52.054;8.552;2023-04-03T03:19:09;5.27;;;2.87;;
1691;SDS011;843;52.054;8.552;2023-04-03T03:21:35;6.97;;;2.30;;
1691;SDS011;843;52.054;8.552;2023-04-03T03:24:02;4.57;;;1.90;;
1691;SDS011;843;52.054;8.552;2023-04-03T03:26:29;8.53;;;2.30;;
1691;SDS011;843;52.054;8.552;2023-04-03T03:28:56;6.17;;;2.13;;
1691;SDS011;843;52.054;8.552;2023-04-03T03:31:22;5.10;;;2.67;;
1691;SDS011;843;52.054;8.552;2023-04-03T03:33:50;2.50;;;1.80;;
1691;SDS011;843;52.054;8.552;2023-04-03T03:36:17;8.10;;;1.80;;
1691;SDS011;843;52.054;8.552;2023-04-03T03:38:44;2.93;;;1.80;;
1691;SDS011;843;52.054;8.552;2023-04-03T03:41:10;3.97;;;2.33;;
1691;SDS011;843;52.054;8.552;2023-04-03T03:43:37;3.17;;;1.87;;
1691;SDS011;843;52.054;8.552;2023-04-03T03:46:04;2.97;;;2.00;;
1691;SDS011;843;52.054;8.552;2023-04-03T03:48:30;6.03;;;2.07;;
1691;SDS011;843;52.054;8.552;2023-04-03T03:50:58;5.40;;;2.00;;
1691;SDS011;843;52.054;8.552;2023-04-03T03:53:25;3.00;;;1.90;;
1691;SDS011;843;52.054;8.552;2023-04-03T03:55:52;2.80;;;1.80;;
1691;SDS011;843;52.054;8.552;2023-04-03T03:58:18;2.67;;;1.70;;
1691;SDS011;843;52.054;8.552;2023-04-03T04:00:45;3.37;;;2.00;;
1691;SDS011;843;52.054;8.552;2023-04-03T04:03:11;1.90;;;1.70;;
1691;SDS011;843;52.054;8.552;2023-04-03T04:05:38;2.97;;;1.77;;
1691;SDS011;843;52.054;8.552;2023-04-03T04:08:06;3.60;;;2.10;;
1691;SDS011;843;52.054;8.552;2023-04-03T04:10:33;4.40;;;1.70;;
1691;SDS011;843;52.054;8.552;2023-04-03T04:12:59;7.50;;;2.00;;
1691;SDS011;843;52.054;8.552;2023-04-03T04:15:26;3.73;;;2.17;;
1691;SDS011;843;52.054;8.552;2023-04-03T04:17:53;3.97;;;2.37;;
1691;SDS011;843;52.054;8.552;2023-04-03T04:20:19;5.07;;;3.00;;
1691;SDS011;843;52.054;8.552;2023-04-03T04:22:46;5.90;;;1.73;;
1691;SDS011;843;52.054;8.552;2023-04-03T04:25:14;8.40;;;2.87;;
1691;SDS011;843;52.054;8.552;2023-04-03T04:27:41;11.97;;;2.43;;
1691;SDS011;843;52.054;8.552;2023-04-03T04:30:08;9.90;;;2.40;;
1691;SDS011;843;52.054;8.552;2023-04-03T04:32:36;6.93;;;2.27;;
1691;SDS011;843;52.054;8.552;2023-04-03T04:35:03;4.03;;;2.47;;
1691;SDS011;843;52.054;8.552;2023-04-03T04:37:30;3.73;;;2.20;;
1691;SDS011;843;52.054;8.552;2023-04-03T04:39:57;2.90;;;2.57;;
1691;SDS011;843;52.054;8.552;2023-04-03T04:42:25;6.20;;;2.30;;
1691;SDS011;843;52.054;8.552;2023-04-03T04:44:52;5.67;;;3.13;;
1691;SDS011;843;52.054;8.552;2023-04-03T04:47:18;7.23;;;2.07;;
1691;SDS011;843;52.054;8.552;2023-04-03T04:49:45;4.37;;;2.70;;
1691;SDS011;843;52.054;8.552;2023-04-03T04:52:12;6.40;;;2.80;;
1691;SDS011;843;52.054;8.552;2023-04-03T04:54:39;4.30;;;2.03;;
1691;SDS011;843;52.054;8.552;2023-04-03T04:57:06;5.73;;;2.33;;
1691;SDS011;843;52.054;8.552;2023-04-03T04:59:34;2.43;;;2.07;;
1691;SDS011;843;52.054;8.552;2023-04-03T05:02:00;6.23;;;2.73;;
1691;SDS011;843;52.054;8.552;2023-04-03T05:04:27;5.57;;;2.50;;
1691;SDS011;843;52.054;8.552;2023-04-03T05:06:54;4.33;;;2.20;;
1691;SDS011;843;52.054;8.552;2023-04-03T05:09:20;4.03;;;2.97;;
1691;SDS011;843;52.054;8.552;2023-04-03T05:11:47;9.70;;;2.50;;
1691;SDS011;843;52.054;8.552;2023-04-03T05:14:14;7.13;;;2.33;;
1691;SDS011;843;52.054;8.552;2023-04-03T05:16:42;4.97;;;2.37;;
1691;SDS011;843;52.054;8.552;2023-04-03T05:19:09;5.87;;;2.50;;
1691;SDS011;843;52.054;8.552;2023-04-03T05:21:35;5.07;;;2.67;;
1691;SDS011;843;52.054;8.552;2023-04-03T05:24:02;5.93;;;3.00;;
1691;SDS011;843;52.054;8.552;2023-04-03T05:26:29;6.00;;;2.20;;
1691;SDS011;843;52.054;8.552;2023-04-03T05:28:56;5.80;;;2.23;;
1691;SDS011;843;52.054;8.552;2023-04-03T05:31:23;4.67;;;2.43;;
1691;SDS011;843;52.054;8.552;2023-04-03T05:33:51;11.60;;;4.37;;
1691;SDS011;843;52.054;8.552;2023-04-03T05:36:18;8.00;;;2.40;;
1691;SDS011;843;52.054;8.552;2023-04-03T05:38:45;2.80;;;1.73;;
1691;SDS011;843;52.054;8.552;2023-04-03T05:41:12;5.37;;;1.77;;
1691;SDS011;843;52.054;8.552;2023-04-03T05:43:38;6.13;;;3.07;;
1691;SDS011;843;52.054;8.552;2023-04-03T05:46:08;6.27;;;2.20;;
1691;SDS011;843;52.054;8.552;2023-04-03T05:48:37;5.50;;;1.80;;
1691;SDS011;843;52.054;8.552;2023-04-03T05:51:05;4.10;;;2.00;;
1691;SDS011;843;52.054;8.552;2023-04-03T05:53:33;7.20;;;2.40;;
1691;SDS011;843;52.054;8.552;2023-04-03T05:56:02;6.00;;;3.00;;
1691;SDS011;843;52.054;8.552;2023-04-03T05:58:28;5.03;;;1.57;;
1691;SDS011;843;52.054;8.552;2023-04-03T06:00:55;5.37;;;2.13;;
1691;SDS011;843;52.054;8.552;2023-04-03T06:03:22;5.00;;;1.90;;
1691;SDS011;843;52.054;8.552;2023-04-03T06:05:49;6.53;;;2.30;;
1691;SDS011;843;52.054;8.552;2023-04-03T06:08:17;4.00;;;2.07;;
1691;SDS011;843;52.054;8.552;2023-04-03T06:10:43;6.50;;;2.20;;
1691;SDS011;843;52.054;8.552;2023-04-03T06:13:10;3.73;;;2.00;;
1691;SDS011;843;52.054;8.552;2023-04-03T06:15:37;5.03;;;2.37;;
1691;SDS011;843;52.054;8.552;2023-04-03T06:18:04;5.93;;;2.67;;
1691;SDS011;843;52.054;8.552;2023-04-03T06:20:31;4.80;;;2.37;;
1691;SDS011;843;52.054;8.552;2023-04-03T06:22:58;3.30;;;1.50;;
1691;SDS011;843;52.054;8.552;2023-04-03T06:25:26;3.53;;;2.07;;
1691;SDS011;843;52.054;8.552;2023-04-03T06:27:53;5.40;;;2.30;;
1691;SDS011;843;52.054;8.552;2023-04-03T06:30:20;4.80;;;1.97;;
1691;SDS011;843;52.054;8.552;2023-04-03T06:32:47;4.17;;;1.67;;
1691;SDS011;843;52.054;8.552;2023-04-03T06:35:14;7.33;;;1.93;;
1691;SDS011;843;52.054;8.552;2023-04-03T06:37:41;5.03;;;2.20;;
1691;SDS011;843;52.054;8.552;2023-04-03T06:40:09;4.80;;;2.00;;
1691;SDS011;843;52.054;8.552;2023-04-03T06:42:39;7.03;;;2.03;;
1691;SDS011;843;52.054;8.552;2023-04-03T06:45:06;4.10;;;2.00;;
1691;SDS011;843;52.054;8.552;2023-04-03T06:47:35;3.73;;;1.63;;
1691;SDS011;843;52.054;8.552;2023-04-03T06:50:01;4.33;;;1.40;;
1691;SDS011;843;52.054;8.552;2023-04-03T06:52:28;3.60;;;1.53;;
1691;SDS011;843;52.054;8.552;2023-04-03T06:54:56;4.13;;;1.60;;
1691;SDS011;843;52.054;8.552;2023-04-03T06:57:24;7.13;;;2.00;;
1691;SDS011;843;52.054;8.552;2023-04-03T06:59:52;6.30;;;2.63;;
1691;SDS011;843;52.054;8.552;2023-04-03T07:02:19;3.03;;;1.50;;
1691;SDS011;843;52.054;8.552;2023-04-03T07:04:46;2.50;;;1.53;;
1691;SDS011;843;52.054;8.552;2023-04-03T07:07:13;3.83;;;1.60;;
1691;SDS011;843;52.054;8.552;2023-04-03T07:09:40;2.37;;;1.60;;
1691;SDS011;843;52.054;8.552;2023-04-03T07:12:07;3.10;;;1.70;;
1691;SDS011;843;52.054;8.552;2023-04-03T07:14:34;3.17;;;1.47;;
1691;SDS011;843;52.054;8.552;2023-04-03T07:17:02;4.73;;;1.70;;
1691;SDS011;843;52.054;8.552;2023-04-03T07:19:29;3.60;;;1.37;;
1691;SDS011;843;52.054;8.552;2023-04-03T07:21:56;3.80;;;1.40;;
1691;SDS011;843;52.054;8.552;2023-04-03T07:24:23;3.37;;;1.33;;
1691;SDS011;843;52.054;8.552;2023-04-03T07:26:50;6.73;;;1.70;;
1691;SDS011;843;52.054;8.552;2023-04-03T07:29:17;4.03;;;1.63;;
1691;SDS011;843;52.054;8.552;2023-04-03T07:31:43;6.27;;;1.33;;
1691;SDS011;843;52.054;8.552;2023-04-03T07:34:11;4.40;;;1.27;;
1691;SDS011;843;52.054;8.552;2023-04-03T07:36:38;3.67;;;1.77;;
1691;SDS011;843;52.054;8.552;2023-04-03T07:39:05;9.07;;;1.80;;
1691;SDS011;843;52.054;8.552;2023-04-03T07:41:33;5.00;;;1.87;;
1691;SDS011;843;52.054;8.552;2023-04-03T07:43:59;2.63;;;1.50;;
1691;SDS011;843;52.054;8.552;2023-04-03T07:46:27;2.73;;;1.10;;
1691;SDS011;843;52.054;8.552;2023-04-03T07:48:54;2.97;;;1.10;;
1691;SDS011;843;52.054;8.552;2023-04-03T07:51:22;2.23;;;1.30;;
1691;SDS011;843;52.054;8.552;2023-04-03T07:53:49;4.43;;;1.53;;
1691;SDS011;843;52.054;8.552;2023-04-03T07:56:16;2.53;;;1.20;;
1691;SDS011;843;52.054;8.552;2023-04-03T07:58:43;4.80;;;1.37;;
1691;SDS011;843;52.054;8.552;2023-04-03T08:01:10;3.23;;;1.40;;
1691;SDS011;843;52.054;8.552;2023-04-03T08:03:37;2.87;;;1.53;;
1691;SDS011;843;52.054;8.552;2023-04-03T08:06:05;7.13;;;2.00;;
1691;SDS011;843;52.054;8.552;2023-04-03T08:08:34;3.27;;;1.50;;
1691;SDS011;843;52.054;8.552;2023-04-03T08:11:01;6.57;;;1.40;;
1691;SDS011;843;52.054;8.552;2023-04-03T08:13:30;5.33;;;1.53;;
1691;SDS011;843;52.054;8.552;2023-04-03T08:15:57;1.87;;;1.50;;
1691;SDS011;843;52.054;8.552;2023-04-03T08:18:24;5.13;;;1.47;;
1691;SDS011;843;52.054;8.552;2023-04-03T08:20:51;2.77;;;1.57;;
1691;SDS011;843;52.054;8.552;2023-04-03T08:23:18;3.00;;;1.50;;
1691;SDS011;843;52.054;8.552;2023-04-03T08:25:47;6.33;;;1.50;;
1691;SDS011;843;52.054;8.552;2023-04-03T08:28:14;2.10;;;0.83;;
1691;SDS011;843;52.054;8.552;2023-04-03T08:30:40;3.97;;;1.70;;
1691;SDS011;843;52.054;8.552;2023-04-03T08:33:08;4.00;;;1.90;;
1691;SDS011;843;52.054;8.552;2023-04-03T08:35:37;3.07;;;1.50;;
1691;SDS011;843;52.054;8.552;2023-04-03T08:38:05;8.77;;;1.20;;
1691;SDS011;843;52.054;8.552;2023-04-03T08:40:32;3.27;;;1.47;;
1691;SDS011;843;52.054;8.552;2023-04-03T08:43:03;3.67;;;1.57;;
1691;SDS011;843;52.054;8.552;2023-04-03T08:45:38;3.77;;;1.43;;
1691;SDS011;843;52.054;8.552;2023-04-03T08:48:11;2.73;;;1.50;;
1691;SDS011;843;52.054;8.552;2023-04-03T08:50:39;3.80;;;1.60;;
1691;SDS011;843;52.054;8.552;2023-04-03T08:53:08;4.73;;;1.70;;
1691;SDS011;843;52.054;8.552;2023-04-03T08:55:39;3.10;;;1.37;;
1691;SDS011;843;52.054;8.552;2023-04-03T08:58:10;2.97;;;1.13;;
1691;SDS011;843;52.054;8.552;2023-04-03T09:00:41;4.13;;;1.30;;
1691;SDS011;843;52.054;8.552;2023-04-03T09:03:11;4.47;;;1.90;;
1691;SDS011;843;52.054;8.552;2023-04-03T09:05:39;2.83;;;1.60;;
1691;SDS011;843;52.054;8.552;2023-04-03T09:08:12;3.60;;;1.53;;
1691;SDS011;843;52.054;8.552;2023-04-03T09:10:43;6.80;;;1.30;;
1691;SDS011;843;52.054;8.552;2023-04-03T09:13:12;4.70;;;1.30;;
1691;SDS011;843;52.054;8.552;2023-04-03T09:15:43;1.97;;;1.43;;
1691;SDS011;843;52.054;8.552;2023-04-03T09:18:12;2.90;;;1.20;;
1691;SDS011;843;52.054;8.552;2023-04-03T09:20:43;2.60;;;1.23;;
1691;SDS011;843;52.054;8.552;2023-04-03T09:23:15;1.90;;;1.30;;
1691;SDS011;843;52.054;8.552;2023-04-03T09:25:46;3.53;;;1.47;;
1691;SDS011;843;52.054;8.552;2023-04-03T09:28:15;2.90;;;1.43;;
1691;SDS011;843;52.054;8.552;2023-04-03T09:30:42;3.23;;;1.33;;
1691;SDS011;843;52.054;8.552;2023-04-03T09:33:08;2.30;;;1.43;;
1691;SDS011;843;52.054;8.552;2023-04-03T09:35:36;3.40;;;1.20;;
1691;SDS011;843;52.054;8.552;2023-04-03T09:38:14;4.93;;;1.23;;
1691;SDS011;843;52.054;8.552;2023-04-03T09:40:43;5.57;;;1.60;;
1691;SDS011;843;52.054;8.552;2023-04-03T09:43:29;3.33;;;1.50;;
1691;SDS011;843;52.054;8.552;2023-04-03T09:46:15;6.33;;;1.37;;
1691;SDS011;843;52.054;8.552;2023-04-03T09:48:49;2.13;;;0.90;;
1691;SDS011;843;52.054;8.552;2023-04-03T09:51:17;4.20;;;1.27;;
1691;SDS011;843;52.054;8.552;2023-04-03T09:53:44;1.80;;;1.10;;
1691;SDS011;843;52.054;8.552;2023-04-03T09:56:18;2.40;;;1.17;;
1691;SDS011;843;52.054;8.552;2023-04-03T09:58:48;2.60;;;1.53;;
1691;SDS011;843;52.054;8.552;2023-04-03T10:01:23;3.47;;;1.60;;
1691;SDS011;843;52.054;8.552;2023-04-03T10:04:03;4.30;;;1.27;;
1691;SDS011;843;52.054;8.552;2023-04-03T10:06:32;6.70;;;1.83;;
1691;SDS011;843;52.054;8.552;2023-04-03T10:09:01;4.50;;;1.30;;
1691;SDS011;843;52.054;8.552;2023-04-03T10:11:30;4.40;;;1.20;;
1691;SDS011;843;52.054;8.552;2023-04-03T10:13:59;3.37;;;1.60;;
1691;SDS011;843;52.054;8.552;2023-04-03T10:16:35;3.03;;;0.93;;
1691;SDS011;843;52.054;8.552;2023-04-03T10:21:59;3.93;;;1.33;;
1691;SDS011;843;52.054;8.552;2023-04-03T10:24:30;1.43;;;0.80;;
1691;SDS011;843;52.054;8.552;2023-04-03T10:27:02;2.33;;;1.17;;
1691;SDS011;843;52.054;8.552;2023-04-03T10:29:37;1.80;;;1.10;;
1691;SDS011;843;52.054;8.552;2023-04-03T10:32:11;2.10;;;1.00;;
1691;SDS011;843;52.054;8.552;2023-04-03T10:34:56;3.20;;;1.10;;
1691;SDS011;843;52.054;8.552;2023-04-03T10:37:29;5.43;;;1.33;;
1691;SDS011;843;52.054;8.552;2023-04-03T10:40:02;2.57;;;0.87;;
1691;SDS011;843;52.054;8.552;2023-04-03T10:42:33;2.43;;;1.00;;
1691;SDS011;843;52.054;8.552;2023-04-03T10:45:18;3.10;;;1.33;;
1691;SDS011;843;52.054;8.552;2023-04-03T10:47:50;2.03;;;1.10;;
1691;SDS011;843;52.054;8.552;2023-04-03T10:50:23;2.67;;;1.23;;
1691;SDS011;843;52.054;8.552;2023-04-03T10:52:57;2.53;;;1.30;;
1691;SDS011;843;52.054;8.552;2023-04-03T10:55:31;4.57;;;1.13;;
1691;SDS011;843;52.054;8.552;2023-04-03T10:58:02;4.63;;;1.40;;
1691;SDS011;843;52.054;8.552;2023-04-03T11:00:33;4.37;;;1.40;;
1691;SDS011;843;52.054;8.552;2023-04-03T11:03:03;5.17;;;1.40;;
1691;SDS011;843;52.054;8.552;2023-04-03T11:05:34;1.40;;;1.03;;
1691;SDS011;843;52.054;8.552;2023-04-03T11:08:04;3.07;;;1.80;;
1691;SDS011;843;52.054;8.552;2023-04-03T11:10:36;4.17;;;2.10;;
1691;SDS011;843;52.054;8.552;2023-04-03T11:13:07;3.20;;;1.10;;
1691;SDS011;843;52.054;8.552;2023-04-03T11:15:38;3.10;;;1.33;;
1691;SDS011;843;52.054;8.552;2023-04-03T11:18:06;4.07;;;1.30;;
1691;SDS011;843;52.054;8.552;2023-04-03T11:20:36;4.43;;;1.60;;
1691;SDS011;843;52.054;8.552;2023-04-03T11:23:04;2.73;;;1.77;;
1691;SDS011;843;52.054;8.552;2023-04-03T11:25:33;1.93;;;1.20;;
1691;SDS011;843;52.054;8.552;2023-04-03T11:28:01;4.50;;;1.73;;
1691;SDS011;843;52.054;8.552;2023-04-03T11:30:30;2.00;;;1.10;;
1691;SDS011;843;52.054;8.552;2023-04-03T11:36:00;2.90;;;1.50;;
1691;SDS011;843;52.054;8.552;2023-04-03T11:38:30;2.97;;;0.90;;
1691;SDS011;843;52.054;8.552;2023-04-03T11:41:01;4.70;;;1.80;;
1691;SDS011;843;52.054;8.552;2023-04-03T11:43:29;3.53;;;1.53;;
1691;SDS011;843;52.054;8.552;2023-04-03T11:45:57;1.97;;;1.40;;
1691;SDS011;843;52.054;8.552;2023-04-03T11:48:42;2.63;;;1.40;;
1691;SDS011;843;52.054;8.552;2023-04-03T11:51:40;4.63;;;1.03;;
1691;SDS011;843;52.054;8.552;2023-04-03T12:03:30;4.07;;;1.77;;
1691;SDS011;843;52.054;8.552;2023-04-03T12:09:31;2.40;;;1.17;;
1691;SDS011;843;52.054;8.552;2023-04-03T12:12:28;1.30;;;0.80;;
1691;SDS011;843;52.054;8.552;2023-04-03T12:15:25;2.73;;;1.30;;
1691;SDS011;843;52.054;8.552;2023-04-03T12:21:22;5.53;;;1.47;;
1691;SDS011;843;52.054;8.552;2023-04-03T12:26:50;2.60;;;1.20;;
1691;SDS011;843;52.054;8.552;2023-04-03T12:29:19;3.30;;;1.10;;
1691;SDS011;843;52.054;8.552;2023-04-03T12:31:53;1.53;;;0.90;;
1691;SDS011;843;52.054;8.552;2023-04-03T12:34:27;2.40;;;1.00;;
1691;SDS011;843;52.054;8.552;2023-04-03T12:37:07;1.77;;;1.20;;
1691;SDS011;843;52.054;8.552;2023-04-03T12:39:41;1.80;;;1.20;;
1691;SDS011;843;52.054;8.552;2023-04-03T12:42:17;2.13;;;1.30;;
1691;SDS011;843;52.054;8.552;2023-04-03T12:44:53;1.77;;;1.20;;
1691;SDS011;843;52.054;8.552;2023-04-03T12:47:28;3.70;;;1.10;;
1691;SDS011;843;52.054;8.552;2023-04-03T12:50:01;3.00;;;1.73;;
1691;SDS011;843;52.054;8.552;2023-04-03T12:52:33;3.87;;;1.10;;
1691;SDS011;843;52.054;8.552;2023-04-03T12:55:07;1.93;;;1.20;;
1691;SDS011;843;52.054;8.552;2023-04-03T12:57:38;3.90;;;1.33;;
1691;SDS011;843;52.054;8.552;2023-04-03T13:00:18;2.60;;;1.67;;
1691;SDS011;843;52.054;8.552;2023-04-03T13:02:51;1.50;;;1.30;;
1691;SDS011;843;52.054;8.552;2023-04-03T13:05:18;5.10;;;2.10;;
1691;SDS011;843;52.054;8.552;2023-04-03T13:07:48;2.10;;;1.13;;
1691;SDS011;843;52.054;8.552;2023-04-03T13:10:18;3.20;;;1.30;;
1691;SDS011;843;52.054;8.552;2023-04-03T13:12:46;3.67;;;1.20;;
1691;SDS011;843;52.054;8.552;2023-04-03T13:15:17;3.40;;;1.30;;
1691;SDS011;843;52.054;8.552;2023-04-03T13:17:46;2.87;;;1.00;;
1691;SDS011;843;52.054;8.552;2023-04-03T13:20:17;2.33;;;1.20;;
1691;SDS011;843;52.054;8.552;2023-04-03T13:22:47;3.33;;;1.03;;
1691;SDS011;843;52.054;8.552;2023-04-03T13:25:17;2.37;;;1.07;;
1691;SDS011;843;52.054;8.552;2023-04-03T13:27:46;3.20;;;1.77;;
1691;SDS011;843;52.054;8.552;2023-04-03T13:30:20;3.13;;;1.43;;
1691;SDS011;843;52.054;8.552;2023-04-03T13:32:51;5.27;;;1.40;;
1691;SDS011;843;52.054;8.552;2023-04-03T13:35:32;4.00;;;1.83;;
1691;SDS011;843;52.054;8.552;2023-04-03T13:38:01;2.93;;;1.23;;
1691;SDS011;843;52.054;8.552;2023-04-03T13:40:31;4.27;;;1.30;;
1691;SDS011;843;52.054;8.552;2023-04-03T13:42:59;2.93;;;1.10;;
1691;SDS011;843;52.054;8.552;2023-04-03T13:45:27;2.40;;;1.47;;
1691;SDS011;843;52.054;8.552;2023-04-03T13:48:08;3.53;;;1.53;;
1691;SDS011;843;52.054;8.552;2023-04-03T13:50:50;2.00;;;1.20;;
1691;SDS011;843;52.054;8.552;2023-04-03T13:53:19;4.97;;;1.20;;
1691;SDS011;843;52.054;8.552;2023-04-03T13:55:55;4.20;;;1.60;;
1691;SDS011;843;52.054;8.552;2023-04-03T13:58:25;2.27;;;1.33;;
1691;SDS011;843;52.054;8.552;2023-04-03T14:00:53;2.23;;;1.33;;
1691;SDS011;843;52.054;8.552;2023-04-03T14:03:23;5.13;;;1.27;;
1691;SDS011;843;52.054;8.552;2023-04-03T14:05:52;2.60;;;1.40;;
1691;SDS011;843;52.054;8.552;2023-04-03T14:08:19;3.70;;;1.40;;
1691;SDS011;843;52.054;8.552;2023-04-03T14:10:46;3.53;;;1.30;;
1691;SDS011;843;52.054;8.552;2023-04-03T14:13:17;2.63;;;1.10;;
1691;SDS011;843;52.054;8.552;2023-04-03T14:15:45;2.40;;;1.10;;
1691;SDS011;843;52.054;8.552;2023-04-03T14:18:14;1.77;;;1.10;;
1691;SDS011;843;52.054;8.552;2023-04-03T14:20:42;4.80;;;1.80;;
1691;SDS011;843;52.054;8.552;2023-04-03T14:23:09;2.53;;;1.03;;
1691;SDS011;843;52.054;8.552;2023-04-03T14:25:36;3.43;;;1.10;;
1691;SDS011;843;52.054;8.552;2023-04-03T14:28:06;3.87;;;1.43;;
1691;SDS011;843;52.054;8.552;2023-04-03T14:30:41;3.63;;;1.40;;
1691;SDS011;843;52.054;8.552;2023-04-03T14:33:10;1.53;;;1.10;;
1691;SDS011;843;52.054;8.552;2023-04-03T14:35:37;2.20;;;1.40;;
1691;SDS011;843;52.054;8.552;2023-04-03T14:38:05;1.80;;;1.20;;
1691;SDS011;843;52.054;8.552;2023-04-03T14:40:32;1.60;;;0.90;;
1691;SDS011;843;52.054;8.552;2023-04-03T14:42:58;2.97;;;1.27;;
1691;SDS011;843;52.054;8.552;2023-04-03T14:45:25;2.30;;;1.40;;
1691;SDS011;843;52.054;8.552;2023-04-03T14:47:53;1.80;;;0.87;;
1691;SDS011;843;52.054;8.552;2023-04-03T14:50:22;5.07;;;1.30;;
1691;SDS011;843;52.054;8.552;2023-04-03T14:52:50;1.57;;;1.10;;
1691;SDS011;843;52.054;8.552;2023-04-03T14:55:19;2.70;;;1.10;;
1691;SDS011;843;52.054;8.552;2023-04-03T14:57:46;2.63;;;1.30;;
1691;SDS011;843;52.054;8.552;2023-04-03T15:00:14;3.97;;;1.30;;
1691;SDS011;843;52.054;8.552;2023-04-03T15:02:42;2.77;;;1.00;;
1691;SDS011;843;52.054;8.552;2023-04-03T15:05:11;3.97;;;1.60;;
1691;SDS011;843;52.054;8.552;2023-04-03T15:07:39;3.03;;;1.50;;
1691;SDS011;843;52.054;8.552;2023-04-03T15:10:14;2.50;;;1.77;;
1691;SDS011;843;52.054;8.552;2023-04-03T15:12:42;4.70;;;1.70;;
1691;SDS011;843;52.054;8.552;2023-04-03T15:15:10;3.40;;;1.60;;
1691;SDS011;843;52.054;8.552;2023-04-03T15:17:38;2.90;;;1.37;;
1691;SDS011;843;52.054;8.552;2023-04-03T15:20:09;4.13;;;1.70;;
1691;SDS011;843;52.054;8.552;2023-04-03T15:22:40;4.30;;;1.80;;
1691;SDS011;843;52.054;8.552;2023-04-03T15:25:07;4.80;;;1.60;;
1691;SDS011;843;52.054;8.552;2023-04-03T15:27:34;7.83;;;1.57;;
1691;SDS011;843;52.054;8.552;2023-04-03T15:30:01;5.23;;;1.10;;
1691;SDS011;843;52.054;8.552;2023-04-03T15:32:28;3.00;;;1.77;;
1691;SDS011;843;52.054;8.552;2023-04-03T15:34:56;2.10;;;1.50;;
1691;SDS011;843;52.054;8.552;2023-04-03T15:37:24;3.23;;;1.50;;
1691;SDS011;843;52.054;8.552;2023-04-03T15:39:51;4.07;;;1.03;;
1691;SDS011;843;52.054;8.552;2023-04-03T15:42:17;3.10;;;1.43;;
1691;SDS011;843;52.054;8.552;2023-04-03T15:44:44;6.33;;;1.33;;
1691;SDS011;843;52.054;8.552;2023-04-03T15:47:11;4.53;;;2.10;;
1691;SDS011;843;52.054;8.552;2023-04-03T15:49:38;5.57;;;1.33;;
1691;SDS011;843;52.054;8.552;2023-04-03T15:52:05;2.80;;;1.07;;
1691;SDS011;843;52.054;8.552;2023-04-03T15:54:33;3.17;;;1.33;;
1691;SDS011;843;52.054;8.552;2023-04-03T15:57:00;3.63;;;1.30;;
1691;SDS011;843;52.054;8.552;2023-04-03T15:59:27;2.33;;;1.10;;
1691;SDS011;843;52.054;8.552;2023-04-03T16:01:55;4.20;;;1.60;;
1691;SDS011;843;52.054;8.552;2023-04-03T16:04:22;2.80;;;1.33;;
1691;SDS011;843;52.054;8.552;2023-04-03T16:06:49;4.93;;;1.60;;